createdAt,value
2023-03-11T00:02:19.436Z,704.38
2023-03-11T00:04:46.104Z,704.90
2023-03-11T00:07:13.786Z,705.08
2023-03-11T00:09:40.456Z,706.13
2023-03-11T00:12:07.610Z,701.85
2023-03-11T00:14:34.218Z,703.80
2023-03-11T00:17:00.901Z,700.50
2023-03-11T00:19:27.489Z,700.45
2023-03-11T00:21:54.178Z,697.17
2023-03-11T00:24:21.043Z,696.65
2023-03-11T00:26:47.692Z,698.15
2023-03-11T00:29:14.321Z,693.42
2023-03-11T05:31:50.267Z,678.22
2023-03-11T05:34:17.918Z,673.75
2023-03-11T05:36:44.713Z,673.45
2023-03-11T05:39:11.797Z,672.58
2023-03-11T05:41:38.443Z,673.35
2023-03-11T05:44:05.210Z,671.85
2023-03-11T05:46:32.263Z,674.67
2023-03-11T05:49:02.190Z,662.65
2023-03-11T05:51:29.408Z,668.33
2023-03-11T05:53:56.377Z,666.58
2023-03-11T05:56:23.406Z,666.70
2023-03-11T05:58:50.440Z,662.08
2023-03-11T06:01:18.727Z,666.78
2023-03-11T06:03:45.476Z,669.13
2023-03-11T06:06:13.143Z,671.85
2023-03-11T06:08:39.775Z,669.43
2023-03-11T06:11:10.706Z,668.30
2023-03-11T06:13:37.882Z,664.28
2023-03-11T06:16:05.376Z,669.75
2023-03-11T06:18:32.135Z,670.15
2023-03-11T06:21:00.031Z,667.88
2023-03-11T06:23:27.580Z,668.03
2023-03-11T06:26:00.983Z,674.92
2023-03-11T06:28:28.451Z,664.07
2023-03-11T06:30:56.744Z,671.10
2023-03-11T06:33:24.815Z,660.83
2023-03-11T06:36:01.850Z,664.22
2023-03-11T06:38:28.772Z,660.95
2023-03-11T06:41:00.229Z,665.47
2023-03-11T06:43:27.736Z,661.37
2023-03-11T06:45:54.415Z,665.65
2023-03-11T06:48:21.083Z,660.60
2023-03-11T06:50:59.042Z,657.15
2023-03-11T06:53:27.194Z,659.00
2023-03-11T06:56:04.268Z,657.10
2023-03-11T06:58:32.457Z,660.65
2023-03-11T07:01:13.917Z,658.22
2023-03-11T07:03:41.332Z,661.78
2023-03-11T07:06:15.863Z,659.67
2023-03-11T07:08:42.684Z,674.27
2023-03-11T07:11:26.960Z,668.85
2023-03-11T07:13:54.515Z,663.40
2023-03-11T07:16:23.788Z,664.65
2023-03-11T07:18:52.007Z,669.55
2023-03-11T07:21:21.303Z,672.90
2023-03-11T07:23:51.578Z,674.80
2023-03-11T07:26:18.733Z,674.97
2023-03-11T07:28:45.703Z,662.40
2023-03-11T07:31:18.618Z,670.67
2023-03-11T07:33:45.530Z,668.30
2023-03-11T07:36:14.641Z,680.97
2023-03-11T07:38:41.935Z,667.38
2023-03-11T07:41:11.105Z,673.55
2023-03-11T07:43:37.916Z,677.47
2023-03-11T07:46:05.623Z,672.03
2023-03-11T07:48:32.776Z,676.22
2023-03-11T07:51:17.505Z,679.17
2023-03-11T07:53:44.385Z,677.53
2023-03-11T07:56:12.924Z,680.60
2023-03-11T07:58:39.834Z,679.55
2023-03-11T08:01:09.241Z,688.30
2023-03-11T08:03:36.576Z,675.58
2023-03-11T08:06:04.222Z,685.70
2023-03-11T08:08:30.796Z,685.45
2023-03-11T08:10:57.410Z,686.05
2023-03-11T08:13:24.028Z,693.15
2023-03-11T08:15:50.836Z,704.15
2023-03-11T08:18:17.480Z,705.78
2023-03-11T08:20:45.429Z,707.95
2023-03-11T08:23:12.432Z,717.20
2023-03-11T08:25:40.638Z,718.10
2023-03-11T08:28:09.036Z,721.55
2023-03-11T08:30:35.846Z,733.33
2023-03-11T08:33:02.471Z,737.58
2023-03-11T08:35:29.191Z,760.37
2023-03-11T08:37:55.945Z,781.03
2023-03-11T08:40:23.311Z,788.58
2023-03-11T08:42:50.082Z,804.33
2023-03-11T08:45:16.804Z,827.78
2023-03-11T08:47:43.544Z,852.67
2023-03-11T08:50:16.816Z,885.43
2023-03-11T08:52:43.581Z,921.78
2023-03-11T08:55:13.538Z,942.22
2023-03-11T08:57:40.671Z,952.60
2023-03-11T09:00:10.232Z,945.47
2023-03-11T09:02:37.654Z,930.40
2023-03-11T09:05:04.529Z,928.85
2023-03-11T09:07:31.104Z,923.85
2023-03-11T09:09:57.806Z,921.25
2023-03-11T09:12:24.572Z,930.75
2023-03-11T09:14:51.237Z,948.28
2023-03-11T09:17:17.943Z,963.70
2023-03-11T09:19:44.562Z,1003.40
2023-03-11T09:22:11.652Z,1048.35
2023-03-11T09:24:38.295Z,1090.80
2023-03-11T09:27:05.061Z,1126.75
2023-03-11T09:29:32.015Z,1145.30
2023-03-11T09:31:59.264Z,1171.53
2023-03-11T09:34:26.052Z,1183.75
2023-03-11T09:36:52.741Z,1184.43
2023-03-11T09:39:19.410Z,1193.85
2023-03-11T09:41:58.831Z,1202.28
2023-03-11T09:44:28.535Z,1216.28
2023-03-11T09:46:55.554Z,1227.10
2023-03-11T09:49:43.148Z,1228.65
2023-03-11T09:52:16.060Z,1226.15
2023-03-11T09:54:48.028Z,1236.63
2023-03-11T09:57:36.890Z,1236.53
2023-03-11T10:00:06.209Z,1239.60
2023-03-11T10:02:36.315Z,1256.25
2023-03-11T10:05:26.726Z,1247.55
2023-03-11T10:08:04.813Z,1240.97
2023-03-11T10:10:43.055Z,1240.05
2023-03-11T10:13:36.708Z,1232.28
2023-03-11T10:16:26.833Z,1233.23
2023-03-11T10:19:24.444Z,1223.47
2023-03-11T10:22:29.824Z,1238.00
2023-03-11T10:25:16.252Z,1233.03
2023-03-11T10:28:02.461Z,1224.15
2023-03-11T10:30:36.656Z,1231.50
2023-03-11T10:33:13.041Z,1236.72
2023-03-11T10:35:42.647Z,1247.50
2023-03-11T10:38:18.211Z,1253.38
2023-03-11T10:40:47.473Z,1259.72
2023-03-11T10:43:26.449Z,1258.03
2023-03-11T10:45:54.022Z,1252.75
2023-03-11T10:48:21.765Z,1243.20
2023-03-11T10:50:55.454Z,1247.75
2023-03-11T10:53:22.216Z,1238.30
2023-03-11T10:55:54.185Z,1216.20
2023-03-11T10:58:23.768Z,1207.45
2023-03-11T11:01:17.394Z,1192.78
2023-03-11T11:03:57.946Z,1180.35
2023-03-11T11:06:33.796Z,1171.77
2023-03-11T11:09:09.079Z,1177.50
2023-03-11T11:11:36.411Z,1182.43
2023-03-11T11:14:03.104Z,1181.75
2023-03-11T11:16:30.357Z,1175.77
2023-03-11T11:19:13.756Z,1156.95
2023-03-11T11:21:48.960Z,1143.65
2023-03-11T11:24:25.422Z,1135.00
2023-03-11T11:27:19.600Z,1131.00
2023-03-11T11:29:47.599Z,1146.40
2023-03-11T11:32:27.414Z,1161.57
2023-03-11T11:35:02.743Z,1167.97
2023-03-11T11:37:32.777Z,1159.65
2023-03-11T11:40:14.792Z,1149.88
2023-03-11T11:43:05.740Z,1128.65
2023-03-11T11:45:42.865Z,1119.17
2023-03-11T11:48:16.305Z,1111.18
2023-03-11T11:50:46.466Z,1102.15
2023-03-11T11:53:28.375Z,1092.63
2023-03-11T11:55:55.319Z,1089.20
2023-03-11T11:58:22.651Z,1087.93
2023-03-11T12:00:55.522Z,1073.30
2023-03-11T12:03:31.364Z,1079.72
2023-03-11T12:06:00.574Z,1068.47
2023-03-11T12:08:32.088Z,1073.15
2023-03-11T12:11:08.828Z,1066.57
2023-03-11T12:14:00.525Z,1059.20
2023-03-11T12:16:43.829Z,1072.82
2023-03-11T12:19:10.655Z,1072.17
2023-03-11T12:21:55.212Z,1066.38
2023-03-11T12:24:27.779Z,1060.07
2023-03-11T12:27:04.242Z,1036.57
2023-03-11T12:29:39.683Z,1015.95
2023-03-11T12:32:07.186Z,1004.15
2023-03-11T12:34:35.880Z,997.97
2023-03-11T12:37:12.596Z,999.33
2023-03-11T12:39:39.275Z,983.42
2023-03-11T12:42:22.108Z,972.67
2023-03-11T12:44:49.742Z,976.45
2023-03-11T12:47:28.767Z,963.35
2023-03-11T12:50:16.124Z,941.60
2023-03-11T12:52:54.550Z,943.85
2023-03-11T12:55:31.817Z,948.30
2023-03-11T12:58:16.514Z,968.50
2023-03-11T13:01:10.022Z,966.80
2023-03-11T13:03:48.289Z,937.05
2023-03-11T13:06:35.269Z,953.25
2023-03-11T13:09:02.172Z,948.88
2023-03-11T13:11:38.744Z,926.72
2023-03-11T13:14:14.922Z,944.38
2023-03-11T13:16:42.354Z,945.58
2023-03-11T13:19:27.825Z,934.80
2023-03-11T13:22:00.013Z,914.03
2023-03-11T13:24:26.929Z,914.03
2023-03-11T13:27:04.905Z,897.58
2023-03-11T13:30:16.281Z,893.50
2023-03-11T13:33:20.745Z,889.72
2023-03-11T13:36:09.394Z,897.63
2023-03-11T13:38:57.976Z,905.55
2023-03-11T13:41:34.784Z,911.17
2023-03-11T13:44:16.732Z,911.65
2023-03-11T13:46:49.678Z,908.58
2023-03-11T13:49:28.926Z,908.30
2023-03-11T13:51:57.365Z,917.92
2023-03-11T13:54:45.530Z,936.58
2023-03-11T13:57:32.664Z,921.60
2023-03-11T14:00:17.570Z,913.47
2023-03-11T14:02:48.436Z,899.73
2023-03-11T14:05:20.871Z,903.90
2023-03-11T14:07:47.662Z,895.70
2023-03-11T14:10:29.649Z,909.10
2023-03-11T14:13:15.384Z,891.78
2023-03-11T14:15:51.642Z,879.38
2023-03-11T14:18:41.656Z,881.22
2023-03-11T14:21:16.059Z,875.50
2023-03-11T14:23:52.163Z,870.28
2023-03-11T14:26:30.887Z,879.03
2023-03-11T14:29:00.346Z,866.42
2023-03-11T14:31:36.502Z,862.07
2023-03-11T14:34:15.995Z,845.17
2023-03-11T14:36:43.359Z,834.00
2023-03-11T14:39:26.690Z,835.17
2023-03-11T14:42:26.793Z,827.35
2023-03-11T14:45:08.197Z,789.50
2023-03-11T14:47:48.460Z,775.58
2023-03-11T14:50:24.405Z,773.85
2023-03-11T14:53:12.356Z,775.03
2023-03-11T14:55:41.352Z,778.03
2023-03-11T14:58:35.773Z,780.70
2023-03-11T15:01:21.041Z,792.50
2023-03-11T15:03:52.775Z,783.97
2023-03-11T15:06:23.453Z,811.95
2023-03-11T15:08:52.545Z,827.85
2023-03-11T15:11:25.352Z,838.25
2023-03-11T15:13:53.304Z,848.97
2023-03-11T15:16:30.310Z,852.03
2023-03-11T15:18:59.235Z,845.77
2023-03-11T15:21:26.042Z,844.58
2023-03-11T15:24:06.498Z,840.15
2023-03-11T15:26:35.774Z,834.13
2023-03-11T15:29:12.727Z,819.25
2023-03-11T15:31:40.473Z,815.57
2023-03-11T15:34:11.653Z,811.20
2023-03-11T15:36:43.947Z,771.00
2023-03-11T15:39:18.230Z,769.08
2023-03-11T15:41:47.640Z,765.83
2023-03-11T15:44:32.638Z,759.33
2023-03-11T15:47:00.421Z,763.45
2023-03-11T15:49:28.641Z,770.25
2023-03-11T15:52:02.562Z,753.55
2023-03-11T15:54:29.293Z,747.33
2023-03-11T15:56:58.550Z,750.80
2023-03-11T15:59:26.212Z,746.60
2023-03-11T16:01:52.911Z,736.47
2023-03-11T16:04:21.047Z,731.65
2023-03-11T16:06:59.519Z,732.83
2023-03-11T16:09:34.220Z,734.22
2023-03-11T16:12:02.175Z,723.60
2023-03-11T16:14:28.951Z,714.08
2023-03-11T16:16:55.665Z,711.13
2023-03-11T16:19:22.307Z,714.05
2023-03-11T16:21:50.334Z,716.05
2023-03-11T16:24:21.013Z,718.50
2023-03-11T16:26:47.978Z,720.50
2023-03-11T16:29:19.316Z,732.30
2023-03-11T16:31:46.901Z,725.08
2023-03-11T16:34:13.611Z,719.45
2023-03-11T16:36:40.468Z,717.70
2023-03-11T16:39:07.311Z,726.63
2023-03-11T16:41:42.427Z,740.00
2023-03-11T16:44:10.005Z,732.78
2023-03-11T16:46:37.029Z,743.20
2023-03-11T16:49:04.014Z,733.13
2023-03-11T16:51:31.283Z,735.28
2023-03-11T16:53:57.986Z,730.38
2023-03-11T16:56:24.874Z,731.03
2023-03-11T16:58:51.530Z,722.00
2023-03-11T17:01:19.218Z,723.35
2023-03-11T17:03:48.605Z,720.63
2023-03-11T17:06:16.996Z,722.17
2023-03-11T17:08:48.965Z,725.87
2023-03-11T17:11:17.877Z,722.55
2023-03-11T17:13:44.581Z,718.97
2023-03-11T17:16:11.398Z,723.50
2023-03-11T17:18:38.204Z,725.40
2023-03-11T17:21:10.745Z,724.55
2023-03-11T17:23:37.548Z,726.08
2023-03-11T17:26:09.641Z,724.63
2023-03-11T17:28:36.710Z,720.17
2023-03-11T17:31:03.547Z,722.13
2023-03-11T17:33:30.239Z,723.53
2023-03-11T17:36:02.194Z,724.53
2023-03-11T17:38:29.510Z,725.40
2023-03-11T17:40:56.461Z,724.10
2023-03-11T17:43:23.243Z,729.53
2023-03-11T17:45:50.477Z,731.67
2023-03-11T17:48:17.219Z,728.03
2023-03-11T17:50:43.903Z,730.03
2023-03-11T17:53:10.633Z,731.70
2023-03-11T17:55:40.400Z,728.92
2023-03-11T17:58:07.640Z,733.63
2023-03-11T18:00:34.528Z,736.67
2023-03-11T18:03:01.171Z,728.58
2023-03-11T18:05:27.757Z,734.17
2023-03-11T18:07:54.401Z,726.33
2023-03-11T18:10:21.565Z,734.78
2023-03-11T18:12:48.332Z,730.30
2023-03-11T18:15:19.120Z,734.97
2023-03-11T18:17:49.065Z,740.27
2023-03-11T18:20:17.186Z,734.70
2023-03-11T18:22:46.797Z,737.03
2023-03-11T18:25:13.901Z,739.63
2023-03-11T18:27:41.133Z,739.03
2023-03-11T18:30:08.628Z,740.88
2023-03-11T18:32:35.318Z,741.65
2023-03-11T18:35:02.093Z,741.75
2023-03-11T18:37:28.688Z,738.13
2023-03-11T18:39:55.368Z,738.72
2023-03-11T18:42:22.048Z,732.47
2023-03-11T18:44:48.672Z,735.25
2023-03-11T18:47:15.301Z,733.03
2023-03-11T18:49:42.036Z,735.80
2023-03-11T18:52:09.081Z,733.67
2023-03-11T18:54:35.894Z,729.47
2023-03-11T18:57:02.535Z,736.90
2023-03-11T18:59:29.125Z,730.93
2023-03-11T19:01:55.738Z,730.65
2023-03-11T19:04:22.429Z,733.67
2023-03-11T19:06:50.132Z,734.10
2023-03-11T19:09:20.779Z,740.10
2023-03-11T19:11:47.403Z,740.53
2023-03-11T19:14:14.040Z,731.17
2023-03-11T19:16:40.691Z,731.30
2023-03-11T19:19:07.401Z,732.03
2023-03-11T19:21:34.012Z,730.28
2023-03-11T19:24:00.703Z,731.35
2023-03-11T19:26:43.237Z,728.83
2023-03-11T19:29:10.891Z,727.60
2023-03-11T19:31:37.511Z,734.17
2023-03-11T19:34:04.250Z,730.80
2023-03-11T19:36:30.912Z,731.80
2023-03-11T19:38:57.626Z,734.63
2023-03-11T19:41:24.324Z,727.72
2023-03-11T19:43:51.761Z,732.08
2023-03-11T19:46:20.999Z,731.63
2023-03-11T19:48:47.679Z,731.67
2023-03-11T19:51:14.967Z,732.58
2023-03-11T19:53:41.713Z,733.58
2023-03-11T19:56:09.348Z,727.65
2023-03-11T19:58:36.316Z,729.33
2023-03-11T20:01:03.447Z,731.80
2023-03-11T20:03:30.130Z,732.13
2023-03-11T20:06:02.430Z,727.80
2023-03-11T20:08:30.338Z,727.80
2023-03-11T20:11:00.918Z,723.35
2023-03-11T20:13:27.598Z,722.72
2023-03-11T20:15:54.241Z,719.70
2023-03-11T20:18:21.011Z,713.10
2023-03-11T20:20:47.674Z,713.53
2023-03-11T20:23:14.803Z,710.83
2023-03-11T20:25:42.313Z,709.05
2023-03-11T20:28:09.516Z,710.43
2023-03-11T20:30:38.298Z,706.60
2023-03-11T20:33:05.383Z,704.53
2023-03-11T20:35:32.659Z,705.83
2023-03-11T20:37:59.571Z,711.03
2023-03-11T20:40:26.438Z,745.83
2023-03-11T20:42:53.121Z,721.15
2023-03-11T20:45:21.900Z,724.88
2023-03-11T20:47:49.983Z,720.47
2023-03-11T20:50:17.274Z,712.17
2023-03-11T20:52:44.061Z,709.42
2023-03-11T20:55:11.531Z,706.30
2023-03-11T20:57:39.539Z,708.00
2023-03-11T21:00:11.492Z,706.17
2023-03-11T21:02:42.589Z,702.30
2023-03-11T21:05:10.691Z,695.53
2023-03-11T21:07:37.666Z,701.83
2023-03-11T21:10:06.897Z,706.72
2023-03-11T21:12:33.619Z,705.08
2023-03-11T21:15:00.617Z,705.03
2023-03-11T21:17:27.431Z,708.75
2023-03-11T21:19:54.183Z,708.85
2023-03-11T21:22:21.044Z,711.10
2023-03-11T21:24:54.953Z,711.20
2023-03-11T21:27:26.149Z,719.30
2023-03-11T21:29:54.313Z,716.33
2023-03-11T21:32:21.946Z,717.20
2023-03-11T21:34:48.851Z,707.67
2023-03-11T21:37:16.254Z,702.85
2023-03-11T21:39:42.981Z,708.40
2023-03-11T21:42:09.763Z,701.22
2023-03-11T21:44:36.442Z,703.50
2023-03-11T21:47:03.582Z,702.38
2023-03-11T21:49:31.353Z,698.60
2023-03-11T21:51:59.664Z,692.93
2023-03-11T21:54:27.765Z,691.00
2023-03-11T21:56:54.472Z,691.75
2023-03-11T21:59:23.555Z,687.70
2023-03-11T22:01:51.777Z,697.58
2023-03-11T22:04:18.469Z,690.17
2023-03-11T22:06:45.225Z,692.03
2023-03-11T22:09:13.965Z,692.70
2023-03-11T22:11:40.600Z,687.42
2023-03-11T22:14:07.444Z,686.08
2023-03-11T22:16:34.245Z,690.17
2023-03-11T22:19:01.359Z,691.97
2023-03-11T22:21:28.278Z,692.90
2023-03-11T22:23:54.948Z,694.50
2023-03-11T22:26:21.613Z,694.17
2023-03-11T22:28:48.264Z,695.65
2023-03-11T22:31:15.673Z,693.70
2023-03-11T22:33:42.436Z,690.33
2023-03-11T22:36:09.931Z,696.78
2023-03-11T22:38:38.468Z,699.70
2023-03-11T22:41:07.637Z,701.33
2023-03-11T22:43:35.513Z,697.05
2023-03-11T22:46:02.709Z,697.42
2023-03-11T22:48:29.509Z,694.50
2023-03-11T22:50:56.654Z,691.60
2023-03-11T22:53:24.875Z,693.22
2023-03-11T22:55:52.762Z,694.78
2023-03-11T22:58:20.008Z,695.83
2023-03-11T23:00:47.009Z,700.67
2023-03-11T23:03:13.945Z,700.70
2023-03-11T23:05:42.222Z,696.28
2023-03-11T23:08:11.868Z,690.97
2023-03-11T23:10:44.128Z,697.78
2023-03-11T23:13:11.639Z,699.38
2023-03-11T23:15:41.258Z,695.13
2023-03-11T23:18:08.331Z,696.30
2023-03-11T23:20:37.655Z,698.75
2023-03-11T23:23:05.738Z,699.53
2023-03-11T23:25:34.032Z,695.92
2023-03-11T23:28:02.971Z,695.75
2023-03-11T23:30:30.106Z,700.05
2023-03-11T23:32:57.360Z,700.42
2023-03-11T23:35:24.192Z,697.00
2023-03-11T23:37:51.577Z,697.60
2023-03-11T23:40:18.479Z,703.38
2023-03-11T23:42:45.153Z,704.85
2023-03-11T23:45:12.069Z,700.95
2023-03-11T23:47:38.720Z,698.72
2023-03-11T23:50:05.918Z,696.17
2023-03-11T23:52:32.985Z,698.47
2023-03-11T23:54:59.707Z,698.38
2023-03-11T23:57:26.457Z,699.30
2023-03-11T23:59:53.113Z,700.45
